createdAt,value
2022-11-29T00:03:06.061Z,100378.89
2022-11-29T00:08:09.621Z,100380.19
2022-11-29T00:13:13.050Z,100378.41
2022-11-29T00:18:16.513Z,100379.48
2022-11-29T00:23:19.820Z,100380.20
2022-11-29T00:28:23.224Z,100377.17
2022-11-29T00:33:27.134Z,100377.67
2022-11-29T00:38:30.520Z,100378.86
2022-11-29T00:43:34.369Z,100378.88
2022-11-29T00:48:37.713Z,100379.70
2022-11-29T00:53:41.133Z,100377.33
2022-11-29T00:58:44.884Z,100375.65
2022-11-29T01:03:48.753Z,100370.00
2022-11-29T01:08:51.927Z,100367.99
2022-11-29T01:13:58.301Z,100370.76
2022-11-29T01:19:01.935Z,100369.79
2022-11-29T01:24:05.653Z,100365.98
2022-11-29T01:29:13.138Z,100363.17
2022-11-29T01:34:16.681Z,100363.26
2022-11-29T01:39:20.119Z,100363.70
2022-11-29T01:44:23.174Z,100359.61
2022-11-29T01:49:33.842Z,100360.28
2022-11-29T01:54:44.627Z,100364.77
2022-11-29T01:59:52.645Z,100362.91
2022-11-29T02:04:58.565Z,100363.25
2022-11-29T02:10:03.358Z,100363.90
2022-11-29T02:15:18.853Z,100361.28
2022-11-29T02:21:04.425Z,100360.91
2022-11-29T02:26:20.279Z,100360.68
2022-11-29T02:31:51.557Z,100365.34
2022-11-29T02:37:11.757Z,100363.35
2022-11-29T02:43:01.089Z,100368.52
2022-11-29T02:48:26.221Z,100370.95
2022-11-29T02:53:41.671Z,100376.94
2022-11-29T02:58:54.886Z,100382.14
2022-11-29T03:04:07.044Z,100378.38
2022-11-29T03:09:38.701Z,100378.82
2022-11-29T03:14:58.062Z,100379.38
2022-11-29T03:20:06.874Z,100383.23
2022-11-29T03:25:21.449Z,100385.48
2022-11-29T03:30:25.077Z,100381.96
2022-11-29T03:35:43.965Z,100380.66
2022-11-29T03:41:20.442Z,100382.25
2022-11-29T03:46:47.367Z,100387.91
2022-11-29T03:52:08.854Z,100393.46
2022-11-29T03:57:18.216Z,100396.60
2022-11-29T04:02:51.225Z,100405.88
2022-11-29T04:08:39.351Z,100407.08
2022-11-29T04:14:13.515Z,100411.82
2022-11-29T04:19:35.393Z,100417.44
2022-11-29T04:24:54.758Z,100423.40
2022-11-29T04:30:23.621Z,100417.73
2022-11-29T04:35:42.839Z,100425.34
2022-11-29T04:41:20.196Z,100424.07
2022-11-29T04:46:36.291Z,100434.81
2022-11-29T04:52:06.348Z,100435.54
2022-11-29T04:57:21.682Z,100436.65
2022-11-29T05:02:33.193Z,100443.19
2022-11-29T05:07:46.077Z,100445.48
2022-11-29T05:13:11.287Z,100449.76
2022-11-29T05:18:23.895Z,100454.94
2022-11-29T05:23:40.373Z,100458.93
2022-11-29T05:29:03.681Z,100464.98
2022-11-29T05:34:16.585Z,100469.02
2022-11-29T05:40:03.709Z,100475.09
2022-11-29T05:45:37.633Z,100481.70
2022-11-29T05:50:48.256Z,100487.62
2022-11-29T05:56:33.571Z,100493.51
2022-11-29T06:02:06.706Z,100497.65
2022-11-29T06:07:24.061Z,100497.56
2022-11-29T06:12:31.207Z,100505.18
2022-11-29T06:18:06.792Z,100508.87
2022-11-29T06:23:35.728Z,100515.83
2022-11-29T06:29:13.619Z,100520.27
2022-11-29T06:34:38.848Z,100518.34
2022-11-29T06:39:42.605Z,100526.55
2022-11-29T06:44:47.226Z,100527.77
2022-11-29T06:49:58.803Z,100528.45
2022-11-29T06:55:40.339Z,100533.07
2022-11-29T07:00:46.656Z,100536.27
2022-11-29T07:05:50.580Z,100541.40
2022-11-29T07:10:55.992Z,100543.75
2022-11-29T07:16:22.583Z,100548.08
2022-11-29T07:21:51.288Z,100550.12
2022-11-29T07:27:08.674Z,100556.02
2022-11-29T07:32:28.572Z,100558.91
2022-11-29T07:37:35.223Z,100560.71
2022-11-29T07:43:06.506Z,100567.04
2022-11-29T07:48:12.687Z,100568.49
2022-11-29T07:53:18.654Z,100570.02
2022-11-29T07:58:22.116Z,100573.42
2022-11-29T08:03:25.543Z,100573.60
2022-11-29T08:08:28.887Z,100575.88
2022-11-29T08:13:32.922Z,100575.63
2022-11-29T08:18:37.136Z,100573.55
2022-11-29T08:23:40.467Z,100575.50
2022-11-29T08:28:44.184Z,100576.20
2022-11-29T08:33:48.325Z,100570.91
2022-11-29T08:38:59.276Z,100575.05
2022-11-29T08:44:07.704Z,100579.92
2022-11-29T08:49:11.191Z,100575.59
2022-11-29T08:54:14.687Z,100574.10
2022-11-29T08:59:18.102Z,100579.08
2022-11-29T09:04:21.896Z,100582.64
2022-11-29T09:09:25.400Z,100586.33
2022-11-29T09:14:29.230Z,100583.96
2022-11-29T09:19:33.161Z,100581.69
2022-11-29T09:24:36.245Z,100584.79
2022-11-29T09:29:39.636Z,100590.55
2022-11-29T09:34:43.536Z,100587.48
2022-11-29T09:39:47.194Z,100587.84
2022-11-29T09:45:32.125Z,100587.97
2022-11-29T09:50:46.284Z,100583.95
2022-11-29T09:56:10.028Z,100582.79
2022-11-29T10:01:21.195Z,100587.36
2022-11-29T10:06:28.362Z,100582.11
2022-11-29T10:12:02.415Z,100590.13
2022-11-29T10:17:30.223Z,100586.02
2022-11-29T10:22:55.684Z,100585.82
2022-11-29T10:27:59.447Z,100583.91
2022-11-29T10:33:03.067Z,100586.78
2022-11-29T10:38:29.736Z,100581.52
2022-11-29T10:43:30.721Z,100576.92
2022-11-29T10:48:34.929Z,100573.09
2022-11-29T10:53:38.382Z,100575.11
2022-11-29T10:59:19.024Z,100577.45
2022-11-29T11:04:35.817Z,100578.27
2022-11-29T11:09:49.542Z,100576.55
2022-11-29T11:15:28.562Z,100574.50
2022-11-29T11:20:34.903Z,100569.13
2022-11-29T11:25:40.667Z,100573.36
2022-11-29T11:31:01.721Z,100578.79
2022-11-29T11:36:13.671Z,100575.52
2022-11-29T11:41:46.139Z,100578.63
2022-11-29T11:46:51.103Z,100581.48
2022-11-29T11:51:54.738Z,100577.64
2022-11-29T11:56:58.657Z,100577.59
2022-11-29T12:02:02.372Z,100575.17
2022-11-29T12:07:33.776Z,100573.95
2022-11-29T12:12:46.000Z,100578.52
2022-11-29T12:18:05.156Z,100579.77
2022-11-29T12:23:16.367Z,100578.52
2022-11-29T12:28:21.678Z,100581.52
2022-11-29T12:33:41.889Z,100580.74
2022-11-29T12:39:05.675Z,100588.30
2022-11-29T12:44:42.604Z,100586.67
2022-11-29T12:50:18.723Z,100583.86
2022-11-29T12:55:32.030Z,100587.06
2022-11-29T13:01:05.357Z,100587.91
2022-11-29T13:06:56.848Z,100593.65
2022-11-29T13:12:45.716Z,100597.39
2022-11-29T13:18:04.838Z,100600.64
2022-11-29T13:23:45.880Z,100604.67
2022-11-29T13:28:51.177Z,100609.18
2022-11-29T13:34:01.063Z,100618.34
2022-11-29T13:39:33.074Z,100624.73
2022-11-29T13:45:12.151Z,100630.48
2022-11-29T13:50:42.979Z,100634.34
2022-11-29T13:56:01.358Z,100632.02
2022-11-29T14:01:13.377Z,100634.43
2022-11-29T14:06:24.009Z,100638.58
2022-11-29T14:11:43.430Z,100633.52
2022-11-29T14:17:35.986Z,100636.30
2022-11-29T14:23:20.322Z,100636.67
2022-11-29T14:28:23.861Z,100639.30
2022-11-29T14:33:45.907Z,100637.69
2022-11-29T14:39:13.791Z,100639.20
2022-11-29T14:44:17.321Z,100646.48
2022-11-29T14:49:25.064Z,100648.55
2022-11-29T14:54:28.910Z,100648.89
2022-11-29T14:59:54.050Z,100655.06
2022-11-29T15:04:58.273Z,100653.30
2022-11-29T15:10:05.482Z,100655.91
2022-11-29T15:15:27.346Z,100658.44
2022-11-29T15:20:49.714Z,100664.45
2022-11-29T15:25:55.348Z,100665.59
2022-11-29T15:31:11.520Z,100673.06
2022-11-29T15:36:24.555Z,100672.52
2022-11-29T15:41:31.528Z,100676.54
2022-11-29T15:46:35.955Z,100681.44
2022-11-29T15:51:40.111Z,100690.44
2022-11-29T15:56:54.114Z,100692.89
2022-11-29T16:02:02.857Z,100693.39
2022-11-29T16:07:06.608Z,100690.36
2022-11-29T16:12:14.335Z,100689.63
2022-11-29T16:17:21.859Z,100693.90
2022-11-29T16:22:29.043Z,100691.67
2022-11-29T16:27:36.832Z,100695.81
2022-11-29T16:32:44.060Z,100698.71
2022-11-29T16:37:48.152Z,100696.15
2022-11-29T16:43:04.346Z,100700.04
2022-11-29T16:48:32.325Z,100697.82
2022-11-29T16:53:39.342Z,100699.67
2022-11-29T16:59:20.531Z,100699.12
2022-11-29T17:04:10.259Z,100704.63
2022-11-29T17:09:24.614Z,100703.04
2022-11-29T17:14:32.187Z,100702.59
2022-11-29T17:19:35.845Z,100709.25
2022-11-29T17:24:46.198Z,100708.52
2022-11-29T17:29:51.556Z,100711.84
2022-11-29T17:34:55.469Z,100714.19
2022-11-29T17:39:58.901Z,100717.64
2022-11-29T17:45:02.095Z,100724.34
2022-11-29T17:50:06.120Z,100726.90
2022-11-29T17:55:12.799Z,100725.46
2022-11-29T18:00:17.835Z,100728.84
2022-11-29T18:05:21.593Z,100732.90
2022-11-29T18:10:28.070Z,100730.80
2022-11-29T18:15:32.962Z,100730.55
2022-11-29T18:20:36.575Z,100729.07
2022-11-29T18:25:40.238Z,100734.95
2022-11-29T18:30:44.290Z,100734.08
2022-11-29T18:35:47.954Z,100737.60
2022-11-29T18:40:51.815Z,100741.48
2022-11-29T18:45:55.288Z,100752.18
2022-11-29T18:51:02.694Z,100756.98
2022-11-29T18:56:16.009Z,100762.10
2022-11-29T19:01:24.305Z,100760.79
2022-11-29T19:06:39.248Z,100762.79
2022-11-29T19:11:44.090Z,100764.58
2022-11-29T19:16:49.237Z,100769.57
2022-11-29T19:21:52.597Z,100769.80
2022-11-29T19:26:56.757Z,100772.54
2022-11-29T19:32:01.186Z,100781.02
2022-11-29T19:37:05.262Z,100783.98
2022-11-29T19:42:09.632Z,100789.55
2022-11-29T19:47:12.950Z,100789.85
2022-11-29T19:52:16.700Z,100800.65
2022-11-29T19:57:20.382Z,100804.58
2022-11-29T20:02:24.584Z,100811.79
2022-11-29T20:07:28.530Z,100815.95
2022-11-29T20:12:34.728Z,100815.88
2022-11-29T20:17:39.822Z,100816.67
2022-11-29T20:22:45.677Z,100818.05
2022-11-29T20:27:49.149Z,100820.88
2022-11-29T20:32:53.255Z,100823.80
2022-11-29T20:38:34.491Z,100819.08
2022-11-29T20:43:55.828Z,100819.67
2022-11-29T20:49:06.046Z,100820.77
2022-11-29T20:54:12.433Z,100823.79
2022-11-29T20:59:16.316Z,100821.59
2022-11-29T21:04:23.597Z,100820.15
2022-11-29T21:09:28.572Z,100824.70
2022-11-29T21:14:32.537Z,100830.16
2022-11-29T21:19:36.517Z,100827.81
2022-11-29T21:25:14.576Z,100835.84
2022-11-29T21:30:21.571Z,100834.54
2022-11-29T21:35:25.375Z,100833.97
2022-11-29T21:40:28.819Z,100833.40
2022-11-29T21:45:32.419Z,100835.60
2022-11-29T21:50:36.303Z,100836.45
2022-11-29T21:55:39.775Z,100839.29
2022-11-29T22:00:44.328Z,100847.55
2022-11-29T22:05:48.316Z,100852.27
2022-11-29T22:16:19.784Z,100855.73
2022-11-29T22:21:23.653Z,100858.10
2022-11-29T22:26:29.097Z,100855.92
2022-11-29T22:31:33.247Z,100851.45
2022-11-29T22:36:38.210Z,100851.95
2022-11-29T22:41:42.047Z,100850.90
2022-11-29T22:46:46.112Z,100850.86
2022-11-29T22:51:51.646Z,100853.36
2022-11-29T22:56:55.135Z,100851.69
2022-11-29T23:01:58.618Z,100847.27
2022-11-29T23:07:02.118Z,100845.86
2022-11-29T23:12:06.228Z,100845.91
2022-11-29T23:17:09.810Z,100845.42
2022-11-29T23:22:13.331Z,100845.55
2022-11-29T23:27:16.899Z,100846.59
2022-11-29T23:32:20.566Z,100848.88
2022-11-29T23:37:24.391Z,100849.70
2022-11-29T23:42:27.912Z,100849.34
2022-11-29T23:47:31.401Z,100847.19
2022-11-29T23:52:34.865Z,100853.05
2022-11-29T23:57:38.640Z,100853.04
